Hebron, Canada
Current Conditions -  °F | °C
As of 8:22 AM on Tuesday 27 Jan 2015 (Local Time) from CYQI Reporting Station
Blowing Snow Blowing Snow  
Wind Chill: -4°   Ceiling: 400
Heat Index: 18°   Visibility: 0.75mi
Dew Point: 14°   Wind: 38mph
Humidity: 86%   Direction: 70°ENE
Pressure: 29.46"   Gusts: 51mph
Location:  43.88°N, 66.08°W
Report Text: CYQI 271222Z 07033G44KT 3/4SM -PL BLSN VV004 M08/M10 A2946 RMK PL8 PRESRR SLP978
Loading
Personal Weather Stations






























Interactive Weather Map New forecast layout! Learn more

10-Day Weather Forecast

Advertisements
Track Severe Weather on mobile